Time;durP1;ratioP1;P1;durP2;ratioP2;P2;SDS_P1;SDS_P2;PMS_P1;PMS_P2;Temp;Humidity;BMP_temperature;BMP_pressure;BME280_temperature;BME280_humidity;BME280_pressure;Samples;Min_cycle;Max_cycle;Signal;HPM_P1;HPM_P2
2023/06/08 00:01:52;;;;;;;15.77;14.02;;;;;;;25.54;46.53;99581.41;4485344;32;33847;-67
2023/06/08 00:04:22;;;;;;;16.73;14.23;;;;;;;25.53;46.53;99580.59;4485348;32;34253;-67
2023/06/08 00:06:52;;;;;;;21.20;13.27;;;;;;;25.52;46.54;99581.69;4484068;32;33900;-67
2023/06/08 00:09:20;;;;;;;;;;;;;;;25.53;46.49;99572.41;4485864;32;33969;-65
2023/06/08 00:11:48;;;;;;;16.08;12.35;;;;;;;25.61;46.28;99569.28;4485161;32;34570;-67
2023/06/08 00:14:17;;;;;;;14.65;12.40;;;;;;;25.53;46.41;99575.13;4484770;32;34602;-66
2023/06/08 00:16:44;;;;;;;14.63;12.40;;;;;;;25.51;46.43;99569.09;4485286;32;33761;-66
2023/06/08 00:19:12;;;;;;;17.25;12.80;;;;;;;25.50;46.44;99570.16;4485180;32;33587;-66
2023/06/08 00:21:42;;;;;;;14.63;11.98;;;;;;;25.49;46.47;99571.22;4485196;32;34900;-67
2023/06/08 00:24:10;;;;;;;12.88;11.50;;;;;;;25.48;46.48;99561.38;4485142;32;33740;-66
2023/06/08 00:26:39;;;;;;;11.93;10.27;;;;;;;25.48;46.44;99564.13;4483925;32;33804;-66
2023/06/08 00:29:07;;;;;;;13.40;10.75;;;;;;;25.46;46.43;99560.81;4485214;32;34551;-67
2023/06/08 00:31:34;;;;;;;12.43;10.85;;;;;;;25.46;46.38;99549.88;4484120;32;34476;-67
2023/06/08 00:34:02;;;;;;;13.40;10.65;;;;;;;25.44;46.34;99555.56;4482166;31;33428;-66
2023/06/08 00:36:30;;;;;;;13.55;10.77;;;;;;;25.45;46.33;99562.69;4500809;31;33950;-66
2023/06/08 00:38:57;;;;;;;11.65;9.70;;;;;;;25.44;46.46;99555.56;4500636;31;34954;-62
2023/06/08 00:41:25;;;;;;;12.65;9.80;;;;;;;25.43;46.42;99562.12;4501140;31;34233;-66
2023/06/08 00:43:54;;;;;;;16.12;10.23;;;;;;;25.42;46.38;99562.38;4500821;31;33074;-63
2023/06/08 00:46:21;;;;;;;12.75;9.63;;;;;;;25.42;46.36;99557.75;4500571;31;33821;-65
2023/06/08 00:48:53;;;;;;;13.40;9.07;;;;;;;25.42;46.35;99562.38;4486651;31;34078;-63
2023/06/08 00:51:21;;;;;;;12.37;8.65;;;;;;;25.41;46.35;99564.28;4499497;31;33812;-67
2023/06/08 00:53:49;;;;;;;14.07;10.43;;;;;;;25.41;46.32;99557.97;4486529;31;33291;-66
2023/06/08 00:56:18;;;;;;;12.23;9.88;;;;;;;25.38;46.31;99562.03;4500792;31;33865;-66
2023/06/08 00:58:47;;;;;;;11.82;9.55;;;;;;;25.38;46.34;99567.50;4492515;31;34446;-68
2023/06/08 01:01:18;;;;;;;12.02;9.80;;;;;;;25.36;46.39;99561.44;4483289;32;34072;-67
2023/06/08 01:03:46;;;;;;;12.43;9.77;;;;;;;25.36;46.37;99566.87;4483727;32;33673;-65
2023/06/08 01:06:16;;;;;;;12.05;9.55;;;;;;;25.37;46.34;99570.47;4470717;32;33644;-66
2023/06/08 01:08:44;;;;;;;12.65;10.02;;;;;;;25.36;46.39;99568.78;4483689;32;34649;-67
2023/06/08 01:11:36;;;;;;;13.93;9.68;;;;;;;25.35;46.49;99570.69;4484023;32;33137;-66
2023/06/08 01:14:12;;;;;;;12.10;9.48;;;;;;;25.36;46.52;99566.87;4483890;32;33026;-67
2023/06/08 01:16:44;;;;;;;13.25;10.30;;;;;;;25.34;46.54;99565.50;4471617;32;33840;-67
2023/06/08 01:19:17;;;;;;;10.52;8.98;;;;;;;25.34;46.47;99566.31;4483682;32;33633;-66
2023/06/08 01:21:54;;;;;;;11.05;9.35;;;;;;;25.32;46.47;99571.22;4483553;32;33780;-66
2023/06/08 01:24:24;;;;;;;14.43;10.27;;;;;;;25.35;46.45;99575.34;4484736;32;33627;-67
2023/06/08 01:26:57;;;;;;;11.90;9.27;;;;;;;25.33;46.47;99577.50;4483443;32;34831;-67
2023/06/08 01:29:27;;;;;;;12.60;9.50;;;;;;;25.32;46.59;99575.81;4470949;32;33874;-66
2023/06/08 01:31:55;;;;;;;12.77;10.13;;;;;;;25.32;46.57;99570.34;4484701;32;33742;-66
2023/06/08 01:34:22;;;;;;;12.90;10.70;;;;;;;25.32;46.60;99573.94;4484904;32;33409;-67
2023/06/08 01:37:08;;;;;;;10.45;8.57;;;;;;;25.31;46.61;99566.81;4483340;32;33918;-67
2023/06/08 01:40:10;;;;;;;14.10;10.07;;;;;;;25.31;46.61;99560.50;4484744;32;34270;-67
2023/06/08 01:42:37;;;;;;;14.00;10.20;;;;;;;25.33;46.59;99566.56;4450656;31;33383;-67
2023/06/08 01:45:10;;;;;;;13.90;10.30;;;;;;;25.29;46.70;99563.50;4470646;32;34393;-66
2023/06/08 01:47:40;;;;;;;13.10;10.63;;;;;;;25.28;46.77;99572.78;4483431;32;33657;-67
2023/06/08 01:50:08;;;;;;;12.57;9.38;;;;;;;25.29;46.80;99570.88;4483472;32;33577;-67
2023/06/08 01:52:39;;;;;;;13.32;10.38;;;;;;;25.29;46.81;99570.88;4483081;32;34337;-67
2023/06/08 01:55:18;;;;;;;12.45;10.02;;;;;;;25.29;46.83;99570.88;4484499;32;34427;-67
2023/06/08 01:57:46;;;;;;;11.93;9.60;;;;;;;25.30;46.82;99575.25;4484450;32;34058;-65
2023/06/08 02:00:15;;;;;;;11.60;9.77;;;;;;;25.27;46.87;99565.63;4470627;32;33536;-67
2023/06/08 02:02:44;;;;;;;;;;;;;;;25.26;46.88;99563.97;4484885;32;33673;-67
2023/06/08 02:05:13;;;;;;;14.65;10.68;;;;;;;25.36;46.68;99558.69;4484455;32;34087;-73
2023/06/08 02:07:41;;;;;;;13.13;10.38;;;;;;;25.28;46.88;99558.28;4483301;32;34678;-68
2023/06/08 02:10:10;;;;;;;12.50;10.10;;;;;;;25.26;46.99;99563.97;4484656;32;34794;-67
2023/06/08 02:12:38;;;;;;;13.38;9.48;;;;;;;25.26;47.07;99568.59;4484251;32;33486;-66
2023/06/08 02:15:06;;;;;;;16.70;9.70;;;;;;;25.27;47.05;99562.91;4483311;32;33470;-67
2023/06/08 02:17:35;;;;;;;12.15;9.70;;;;;;;25.28;47.00;99561.84;4484255;32;34124;-67
2023/06/08 02:20:07;;;;;;;12.35;9.57;;;;;;;25.28;46.99;99556.38;4484190;32;34886;-67
2023/06/08 02:22:36;;;;;;;13.50;9.07;;;;;;;25.29;46.97;99562.66;4484147;32;33717;-67
2023/06/08 02:25:05;;;;;;;14.25;9.55;;;;;;;25.29;46.97;99554.47;4470261;32;33455;-67
2023/06/08 02:27:36;;;;;;;11.00;9.20;;;;;;;25.29;46.98;99559.94;4484419;32;33550;-67
2023/06/08 02:30:07;;;;;;;11.60;9.07;;;;;;;25.30;46.94;99559.69;4482999;32;33650;-67
2023/06/08 02:32:35;;;;;;;10.30;8.88;;;;;;;25.30;46.99;99554.22;4483072;32;33853;-66
2023/06/08 02:35:03;;;;;;;11.60;9.32;;;;;;;25.31;46.93;99555.88;4484313;32;33187;-66
2023/06/08 02:37:33;;;;;;;11.25;8.07;;;;;;;25.31;46.94;99557.78;4470532;32;33625;-67
2023/06/08 02:40:02;;;;;;;11.73;9.43;;;;;;;25.33;46.90;99555.66;4484272;32;33599;-67
2023/06/08 02:42:30;;;;;;;13.35;9.80;;;;;;;25.33;46.90;99553.75;4484140;32;35013;-67
2023/06/08 02:44:59;;;;;;;11.55;8.70;;;;;;;25.33;46.88;99542.81;4484374;32;33488;-67
2023/06/08 02:47:27;;;;;;;10.68;8.68;;;;;;;25.33;46.90;99551.00;4484034;32;33664;-67
2023/06/08 02:49:55;;;;;;;12.30;9.27;;;;;;;25.33;46.88;99542.81;4484346;32;33991;-67
2023/06/08 02:52:22;;;;;;;12.20;8.90;;;;;;;25.34;46.87;99549.09;4483989;32;33959;-66
2023/06/08 02:54:50;;;;;;;11.30;8.88;;;;;;;25.34;46.86;99540.91;4484211;32;34196;-66
2023/06/08 02:57:18;;;;;;;11.30;8.38;;;;;;;25.34;46.88;99546.38;4484261;32;34933;-66
2023/06/08 02:59:46;;;;;;;11.07;8.43;;;;;;;25.34;46.88;99554.56;4484138;32;35007;-67
2023/06/08 03:02:14;;;;;;;12.10;9.07;;;;;;;25.34;46.86;99544.47;4483818;32;34647;-67
2023/06/08 03:04:43;;;;;;;10.38;8.25;;;;;;;25.35;46.89;99545.28;4483924;32;33460;-67
2023/06/08 03:07:15;;;;;;;9.48;7.72;;;;;;;25.35;46.90;99542.56;4484123;32;33942;-67
2023/06/08 03:09:43;;;;;;;10.77;7.95;;;;;;;25.36;46.86;99541.47;4484099;32;34955;-68
2023/06/08 03:12:14;;;;;;;10.02;8.43;;;;;;;25.35;46.88;99545.28;4483921;32;33905;-66
2023/06/08 03:14:43;;;;;;;12.85;8.48;;;;;;;25.35;46.94;99551.59;4483912;32;33288;-68
2023/06/08 03:17:11;;;;;;;10.90;8.15;;;;;;;25.36;46.94;99555.12;4484122;32;33853;-68
2023/06/08 03:19:39;;;;;;;9.45;8.02;;;;;;;25.35;46.87;99559.78;4483790;32;33925;-68
2023/06/08 03:22:08;;;;;;;11.18;8.52;;;;;;;25.35;46.88;99553.50;4483721;32;34472;-66
2023/06/08 03:24:36;;;;;;;10.35;8.73;;;;;;;25.35;46.92;99553.50;4483990;32;34188;-66
2023/06/08 03:27:08;;;;;;;11.12;8.43;;;;;;;25.35;46.98;99553.50;4482629;32;34650;-66
2023/06/08 03:29:35;;;;;;;9.85;8.38;;;;;;;25.36;46.97;99558.69;4483487;32;33678;-67
2023/06/08 03:32:04;;;;;;;10.18;7.60;;;;;;;25.36;46.93;99550.50;4483673;32;35014;-67
2023/06/08 03:34:32;;;;;;;10.45;8.15;;;;;;;25.36;46.93;99549.69;4484971;32;34340;-67
2023/06/08 03:37:00;;;;;;;10.02;8.35;;;;;;;25.35;46.91;99559.78;4485652;32;34629;-67
2023/06/08 03:39:29;;;;;;;10.50;8.40;;;;;;;25.37;46.90;99559.56;4485671;32;33987;-67
2023/06/08 03:41:56;;;;;;;11.55;8.05;;;;;;;25.37;46.95;99562.28;4485520;32;34741;-66
2023/06/08 03:44:24;;;;;;;13.45;8.15;;;;;;;25.37;46.90;99559.56;4485747;32;33213;-66
2023/06/08 03:46:52;;;;;;;11.65;8.48;;;;;;;25.37;46.97;99559.56;4485405;32;33960;-67
2023/06/08 03:49:20;;;;;;;10.88;8.10;;;;;;;25.37;46.97;99560.38;4485338;32;34744;-67
2023/06/08 03:51:48;;;;;;;11.75;7.80;;;;;;;25.37;46.97;99565.84;4485477;32;33494;-67
2023/06/08 03:54:16;;;;;;;11.38;8.45;;;;;;;25.37;46.90;99562.28;4485231;31;34176;-67
2023/06/08 03:56:44;;;;;;;11.30;8.93;;;;;;;25.38;46.91;99561.19;4493209;31;33991;-70
2023/06/08 03:59:12;;;;;;;11.05;7.30;;;;;;;25.37;46.90;99567.75;4491781;31;33602;-71
2023/06/08 04:01:41;;;;;;;9.18;7.62;;;;;;;25.38;46.91;99566.66;4498857;31;33942;-69
2023/06/08 04:04:12;;;;;;;10.93;8.20;;;;;;;25.38;47.04;99558.47;4501125;31;33455;-72
2023/06/08 04:06:40;;;;;;;13.73;8.27;;;;;;;25.40;46.92;99561.78;4500094;31;34741;-71
2023/06/08 04:09:08;;;;;;;9.82;7.95;;;;;;;25.38;46.91;99558.47;4481783;31;34793;-67
2023/06/08 04:11:36;;;;;;;10.75;8.07;;;;;;;25.39;46.79;99554.66;4483808;32;32712;-67
2023/06/08 04:14:03;;;;;;;10.70;7.57;;;;;;;25.38;46.73;99553.84;4485182;32;33918;-64
2023/06/08 04:16:32;;;;;;;12.00;7.37;;;;;;;25.40;46.71;99564.50;4485432;32;33982;-65
2023/06/08 04:19:01;;;;;;;9.15;7.05;;;;;;;25.38;46.73;99559.28;4485323;32;34938;-65
2023/06/08 04:21:28;;;;;;;9.98;6.97;;;;;;;25.38;46.74;99558.47;4485104;32;34806;-65
2023/06/08 04:23:57;;;;;;;9.80;7.35;;;;;;;25.40;46.70;99562.59;4485396;32;34379;-65
2023/06/08 04:26:25;;;;;;;10.18;6.90;;;;;;;25.39;46.67;99560.13;4485202;32;33830;-66
2023/06/08 04:28:53;;;;;;;11.07;7.50;;;;;;;25.39;46.64;99568.31;4485396;32;34142;-68
2023/06/08 04:31:21;;;;;;;9.98;6.87;;;;;;;25.41;46.66;99557.97;4485319;32;34499;-65
2023/06/08 04:33:51;;;;;;;11.77;7.43;;;;;;;25.40;46.63;99564.50;4483445;32;33132;-64
2023/06/08 04:36:19;;;;;;;10.52;6.60;;;;;;;25.41;46.61;99564.28;4483342;32;33598;-64
2023/06/08 04:38:47;;;;;;;10.02;6.97;;;;;;;25.41;46.61;99563.44;4483630;32;34513;-65
2023/06/08 04:41:18;;;;;;;9.13;6.72;;;;;;;25.41;46.61;99563.44;4483257;32;33587;-68
2023/06/08 04:43:49;;;;;;;9.77;7.28;;;;;;;25.41;46.60;99566.16;4483770;32;33354;-64
2023/06/08 04:46:17;;;;;;;10.40;7.43;;;;;;;25.40;46.60;99562.59;4482378;32;33540;-65
2023/06/08 04:48:45;;;;;;;9.07;6.93;;;;;;;25.41;46.59;99568.88;4483278;32;33801;-65
2023/06/08 04:51:13;;;;;;;8.43;6.65;;;;;;;25.41;46.60;99572.47;4484048;32;34774;-66
2023/06/08 04:53:42;;;;;;;12.00;7.20;;;;;;;25.40;46.61;99572.69;4484098;32;33037;-66
2023/06/08 04:56:18;;;;;;;10.35;7.70;;;;;;;25.40;46.59;99578.16;4484970;32;34547;-68
2023/06/08 04:58:48;;;;;;;9.48;7.18;;;;;;;25.40;46.59;99575.44;4485239;32;33612;-65
2023/06/08 05:01:15;;;;;;;12.45;7.03;;;;;;;25.40;46.60;99578.16;4485047;32;33682;-64
2023/06/08 05:03:43;;;;;;;10.75;7.18;;;;;;;25.40;46.60;99576.25;4485141;32;34276;-65
2023/06/08 05:06:11;;;;;;;9.70;7.37;;;;;;;25.39;46.62;99576.50;4484367;32;34781;-68
2023/06/08 05:08:38;;;;;;;8.95;7.12;;;;;;;25.40;46.64;99575.44;4484952;32;33513;-72
2023/06/08 05:11:08;;;;;;;12.13;7.65;;;;;;;25.40;46.62;99586.34;4484715;32;33566;-71
2023/06/08 05:13:36;;;;;;;12.93;7.50;;;;;;;25.41;46.61;99579.81;4483408;32;33663;-71
2023/06/08 05:16:04;;;;;;;8.60;7.43;;;;;;;25.40;46.62;99583.63;4484815;32;33839;-72
2023/06/08 05:18:31;;;;;;;9.50;7.32;;;;;;;25.40;46.62;99579.00;4484846;32;33912;-69
2023/06/08 05:20:59;;;;;;;11.65;7.90;;;;;;;25.40;46.59;99579.00;4484936;32;34623;-72
2023/06/08 05:23:26;;;;;;;9.07;7.18;;;;;;;25.41;46.60;99591.59;4484503;32;33177;-72
2023/06/08 05:25:54;;;;;;;9.75;7.32;;;;;;;25.41;46.58;99582.53;4484819;32;33548;-71
2023/06/08 05:28:22;;;;;;;9.43;7.80;;;;;;;25.40;46.56;99583.63;4484520;32;34046;-71
2023/06/08 05:30:50;;;;;;;10.38;8.18;;;;;;;25.40;46.59;99584.44;4484609;32;34062;-72
2023/06/08 05:33:17;;;;;;;10.68;8.30;;;;;;;25.39;46.64;99584.69;4484707;32;33611;-72
2023/06/08 05:35:45;;;;;;;9.20;7.82;;;;;;;25.40;46.66;99587.19;4484666;32;34642;-71
2023/06/08 05:38:13;;;;;;;11.12;7.80;;;;;;;25.40;46.68;99591.81;4484646;32;34007;-72
2023/06/08 05:40:42;;;;;;;10.18;7.75;;;;;;;25.40;46.67;99591.81;4483425;32;33947;-67
2023/06/08 05:43:09;;;;;;;12.13;7.43;;;;;;;25.40;46.68;99587.19;4484549;32;33527;-64
2023/06/08 05:45:37;;;;;;;10.85;8.52;;;;;;;25.41;46.68;99579.81;4484626;32;34690;-64
2023/06/08 05:48:05;;;;;;;9.02;7.50;;;;;;;25.41;46.73;99579.81;4484573;32;33904;-64
2023/06/08 05:50:33;;;;;;;11.05;8.25;;;;;;;25.41;46.78;99588.00;4484409;32;34789;-67
2023/06/08 05:53:00;;;;;;;11.40;8.55;;;;;;;25.41;46.78;99588.00;4484618;32;33172;-65
2023/06/08 05:55:28;;;;;;;9.77;7.90;;;;;;;25.40;46.79;99583.63;4484864;32;34710;-65
2023/06/08 05:57:56;;;;;;;11.12;7.80;;;;;;;25.40;46.82;99587.19;4484006;32;33564;-64
2023/06/08 06:00:24;;;;;;;11.00;8.90;;;;;;;25.40;46.82;99589.09;4484507;32;34134;-71
2023/06/08 06:02:51;;;;;;;9.98;7.70;;;;;;;25.40;46.88;99589.91;4484451;32;33549;-72
2023/06/08 06:05:20;;;;;;;9.48;7.65;;;;;;;25.40;46.84;99589.91;4484361;32;34886;-71
2023/06/08 06:07:48;;;;;;;10.38;8.70;;;;;;;25.39;46.83;99579.25;4484572;32;33692;-72
2023/06/08 06:10:16;;;;;;;10.38;8.02;;;;;;;25.40;46.83;99580.91;4484527;32;33966;-72
2023/06/08 06:12:44;;;;;;;12.57;8.32;;;;;;;25.38;46.83;99580.31;4484327;32;33148;-65
2023/06/08 06:15:11;;;;;;;10.43;8.95;;;;;;;25.38;46.85;99581.16;4484516;32;34751;-67
2023/06/08 06:17:39;;;;;;;9.95;8.25;;;;;;;25.39;46.86;99581.97;4484594;32;34753;-64
2023/06/08 06:20:08;;;;;;;12.02;9.23;;;;;;;25.40;46.89;99589.09;4484090;32;33457;-64
2023/06/08 06:22:35;;;;;;;10.82;8.45;;;;;;;25.39;46.90;99584.69;4484396;32;34357;-66
2023/06/08 06:25:05;;;;;;;9.35;7.53;;;;;;;25.39;46.85;99584.69;4484511;32;33908;-64
2023/06/08 06:27:33;;;;;;;10.45;8.43;;;;;;;25.40;46.82;99580.91;4484269;32;34053;-65
2023/06/08 06:30:15;;;;;;;11.55;9.52;;;;;;;25.39;46.87;99581.97;4481254;32;88864;-67
2023/06/08 06:32:42;;;;;;;11.90;9.30;;;;;;;25.39;46.96;99579.25;4482877;32;33357;-65
2023/06/08 06:35:13;;;;;;;11.90;8.80;;;;;;;25.38;47.00;99572.94;4484528;32;34380;-65
2023/06/08 06:37:41;;;;;;;11.12;8.95;;;;;;;25.39;46.97;99579.25;4484250;32;35058;-69
2023/06/08 06:40:10;;;;;;;13.25;9.85;;;;;;;25.38;47.03;99572.13;4484117;32;33799;-65
2023/06/08 06:42:39;;;;;;;11.05;8.75;;;;;;;25.38;47.00;99572.13;4484189;32;34292;-65
2023/06/08 06:45:11;;;;;;;11.88;9.93;;;;;;;25.39;46.97;99573.78;4484114;32;33942;-64
2023/06/08 06:47:39;;;;;;;14.00;10.43;;;;;;;25.38;47.13;99575.69;4484414;32;33899;-64
2023/06/08 06:50:07;;;;;;;10.35;8.98;;;;;;;25.38;47.15;99575.69;4484086;32;34043;-65
2023/06/08 06:52:35;;;;;;;13.90;9.55;;;;;;;25.38;47.08;99580.31;4483933;32;34028;-69
2023/06/08 06:55:03;;;;;;;11.43;10.23;;;;;;;25.38;47.05;99583.06;4483946;32;33681;-65
2023/06/08 06:57:32;;;;;;;13.00;10.88;;;;;;;25.38;47.09;99577.59;4484339;32;33827;-64
2023/06/08 07:00:00;;;;;;;11.60;10.13;;;;;;;25.37;47.26;99578.66;4483820;32;33649;-70
2023/06/08 07:02:29;;;;;;;14.02;11.30;;;;;;;25.39;47.24;99581.97;4483982;32;34232;-72
2023/06/08 07:04:58;;;;;;;10.60;9.32;;;;;;;25.38;47.31;99577.59;4483967;32;34071;-72
2023/06/08 07:07:27;;;;;;;11.52;9.50;;;;;;;25.38;47.23;99585.78;4483707;32;34103;-72
2023/06/08 07:09:55;;;;;;;13.55;9.82;;;;;;;25.38;47.08;99570.22;4482983;32;34547;-72
2023/06/08 07:12:22;;;;;;;11.45;9.88;;;;;;;25.38;47.14;99574.84;4483816;32;33380;-66
2023/06/08 07:14:50;;;;;;;12.85;10.60;;;;;;;25.38;47.17;99577.59;4483546;32;33572;-64
2023/06/08 07:17:17;;;;;;;13.60;10.20;;;;;;;25.38;47.36;99580.31;4484036;32;34434;-66
2023/06/08 07:19:47;;;;;;;12.15;9.88;;;;;;;25.38;47.34;99574.84;4483846;32;33617;-70
2023/06/08 07:22:15;;;;;;;12.07;9.52;;;;;;;25.38;47.21;99581.16;4483535;32;33036;-65
2023/06/08 07:25:04;;;;;;;12.57;10.27;;;;;;;25.39;47.23;99582.78;4483672;32;34666;-70
2023/06/08 07:27:51;;;;;;;13.13;10.13;;;;;;;25.39;47.25;99584.69;4484031;32;33983;-65
2023/06/08 07:30:19;;;;;;;10.93;9.18;;;;;;;25.39;47.25;99579.25;4483717;32;33302;-72
2023/06/08 07:32:46;;;;;;;13.13;9.55;;;;;;;25.38;47.20;99577.59;4482080;32;34330;-65
2023/06/08 07:35:14;;;;;;;12.52;8.65;;;;;;;25.38;47.17;99581.16;4483459;32;33846;-69
2023/06/08 07:37:42;;;;;;;12.37;9.98;;;;;;;25.39;47.16;99576.50;4483450;32;33719;-67
2023/06/08 07:40:11;;;;;;;12.50;10.55;;;;;;;25.39;47.14;99581.97;4483270;32;34527;-64
2023/06/08 07:42:39;;;;;;;13.05;11.32;;;;;;;25.41;47.31;99582.53;4483563;32;33644;-67
2023/06/08 07:45:07;;;;;;;13.82;10.77;;;;;;;25.40;47.45;99584.44;4483151;32;34904;-71
2023/06/08 07:47:53;;;;;;;13.48;11.10;;;;;;;25.41;47.47;99580.66;4483264;32;34598;-71
2023/06/08 07:50:21;;;;;;;11.18;9.82;;;;;;;25.40;47.40;99584.44;4483554;32;34109;-71
2023/06/08 07:52:48;;;;;;;14.77;11.05;;;;;;;25.40;47.38;99580.91;4483282;32;33238;-64
2023/06/08 07:55:16;;;;;;;13.00;11.43;;;;;;;25.40;47.60;99579.00;4481795;32;34607;-65
2023/06/08 07:57:44;;;;;;;14.23;10.85;;;;;;;25.41;47.52;99586.12;4483114;32;33671;-67
2023/06/08 08:00:13;;;;;;;11.35;10.13;;;;;;;25.40;47.49;99586.34;4483141;32;33828;-65
2023/06/08 08:02:42;;;;;;;15.77;10.10;;;;;;;25.42;47.45;99578.75;4482985;32;33497;-69
2023/06/08 08:05:09;;;;;;;13.68;11.63;;;;;;;25.42;47.30;99581.50;4482824;32;34005;-65
2023/06/08 08:07:37;;;;;;;13.20;11.35;;;;;;;25.42;47.66;99582.31;4482981;32;34049;-66
2023/06/08 08:10:05;;;;;;;13.30;10.57;;;;;;;25.42;47.55;99574.13;4483016;32;34074;-65
2023/06/08 08:12:33;;;;;;;14.00;11.10;;;;;;;25.42;47.60;99574.13;4482717;32;33598;-65
2023/06/08 08:15:01;;;;;;;12.52;10.85;;;;;;;25.43;47.62;99578.50;4482939;32;33972;-67
2023/06/08 08:17:30;;;;;;;12.55;10.18;;;;;;;25.44;47.69;99573.87;4482913;32;35021;-66
2023/06/08 08:19:58;;;;;;;16.75;12.80;;;;;;;25.45;47.65;99570.88;4483426;32;33882;-65
2023/06/08 08:22:26;;;;;;;12.50;10.40;;;;;;;25.45;47.92;99579.06;4485337;32;33400;-64
2023/06/08 08:24:54;;;;;;;14.63;11.10;;;;;;;25.46;48.21;99577.19;4485132;32;33734;-71
2023/06/08 08:27:21;;;;;;;15.65;12.35;;;;;;;25.46;48.15;99574.47;4484927;32;35334;-72
2023/06/08 08:29:49;;;;;;;16.15;12.70;;;;;;;25.48;48.30;99574.22;4484893;32;33895;-72
2023/06/08 08:32:17;;;;;;;13.48;10.98;;;;;;;25.48;48.67;99571.47;4485168;32;33373;-72
2023/06/08 08:34:45;;;;;;;13.82;10.43;;;;;;;25.49;48.53;99565.75;4485006;32;34000;-72
2023/06/08 08:37:13;;;;;;;13.55;11.45;;;;;;;25.49;48.48;99571.22;4485052;32;33514;-72
2023/06/08 08:39:40;;;;;;;13.32;10.52;;;;;;;25.50;48.57;99563.84;4485150;32;34574;-71
2023/06/08 08:42:10;;;;;;;14.48;11.25;;;;;;;25.51;48.52;99560.03;4484945;32;33481;-72
2023/06/08 08:44:38;;;;;;;12.57;10.32;;;;;;;25.51;48.59;99571.81;4471048;32;34724;-72
2023/06/08 08:47:10;;;;;;;12.90;10.85;;;;;;;25.53;48.53;99568.84;4471036;32;33665;-72
2023/06/08 08:49:40;;;;;;;13.07;11.52;;;;;;;25.52;48.63;99569.91;4471123;32;34484;-72
2023/06/08 08:52:09;;;;;;;13.00;11.48;;;;;;;25.54;49.04;99570.50;4471319;32;34134;-71
2023/06/08 08:54:38;;;;;;;13.80;12.05;;;;;;;25.55;49.14;99569.41;4483721;32;33714;-72
2023/06/08 08:57:09;;;;;;;17.45;12.60;;;;;;;25.56;49.42;99573.81;4484980;32;34775;-73
2023/06/08 08:59:37;;;;;;;13.90;12.25;;;;;;;25.55;49.38;99578.44;4485032;32;33629;-66
2023/06/08 09:02:05;;;;;;;14.02;11.05;;;;;;;25.56;49.34;99577.38;4483446;32;34294;-67
2023/06/08 09:04:32;;;;;;;13.20;11.48;;;;;;;25.57;49.31;99572.75;4484008;32;33870;-68
2023/06/08 09:07:00;;;;;;;12.63;11.00;;;;;;;25.57;49.33;99570.84;4484899;32;33905;-65
2023/06/08 09:10:12;;;;;;;12.98;11.00;;;;;;;25.57;49.30;99568.09;4484925;32;34243;-65
2023/06/08 09:12:44;;;;;;;15.30;10.82;;;;;;;25.60;49.32;99559.44;4484738;32;33624;-68
2023/06/08 09:15:23;;;;;;;13.93;11.27;;;;;;;25.58;49.47;99564.28;4484724;32;34562;-66
2023/06/08 09:17:53;;;;;;;16.27;11.90;;;;;;;25.58;49.47;99560.72;4484781;32;34848;-64
2023/06/08 09:20:47;;;;;;;14.95;12.35;;;;;;;25.64;49.42;99562.47;4484839;32;33780;-64
2023/06/08 09:23:15;;;;;;;12.90;11.48;;;;;;;25.65;49.87;99561.41;4482148;31;34367;-64
2023/06/08 09:25:43;;;;;;;15.48;11.63;;;;;;;25.63;49.83;99560.81;4484763;32;34841;-64
2023/06/08 09:28:18;;;;;;;13.75;11.35;;;;;;;25.62;49.68;99553.69;4484975;32;33952;-64
2023/06/08 09:30:48;;;;;;;12.65;10.90;;;;;;;25.61;49.65;99541.94;4484238;32;33649;-64
2023/06/08 09:33:24;;;;;;;14.00;11.57;;;;;;;25.62;49.58;99543.59;4484701;32;33045;-64
2023/06/08 09:36:16;;;;;;;13.25;10.52;;;;;;;25.62;49.54;99545.50;4484478;32;33582;-64
2023/06/08 09:38:44;;;;;;;13.55;10.98;;;;;;;25.66;49.49;99554.88;4484659;32;34966;-64
2023/06/08 09:41:11;;;;;;;13.93;11.82;;;;;;;25.63;49.46;99538.97;4483337;32;34318;-64
2023/06/08 09:43:40;;;;;;;12.45;11.05;;;;;;;25.63;49.46;99534.31;4484709;32;33176;-63
2023/06/08 09:46:11;;;;;;;14.38;10.90;;;;;;;25.62;49.43;99535.41;4484463;32;34681;-63
2023/06/08 09:48:40;;;;;;;13.23;10.40;;;;;;;25.64;49.40;99529.69;4484706;32;33594;-65
2023/06/08 09:51:07;;;;;;;14.82;11.77;;;;;;;25.65;49.36;99539.56;4483356;32;33816;-64
2023/06/08 09:53:36;;;;;;;14.65;11.50;;;;;;;25.64;49.47;99538.69;4483210;32;33683;-64
2023/06/08 09:56:05;;;;;;;13.23;11.00;;;;;;;25.66;49.52;99538.47;4483414;32;33725;-66
2023/06/08 09:58:32;;;;;;;14.15;11.02;;;;;;;25.67;49.52;99542.84;4484131;32;34661;-66
2023/06/08 10:01:03;;;;;;;14.77;10.40;;;;;;;25.66;49.48;99541.22;4483085;32;33623;-68
2023/06/08 10:03:39;;;;;;;12.32;10.20;;;;;;;25.66;49.46;99530.28;4483364;32;33609;-68
2023/06/08 10:06:07;;;;;;;14.02;10.30;;;;;;;25.67;49.39;99532.75;4465919;32;33828;-67
2023/06/08 10:08:37;;;;;;;11.82;9.57;;;;;;;25.67;49.37;99530.03;4454688;32;34699;-67
2023/06/08 10:11:04;;;;;;;12.20;10.10;;;;;;;25.67;49.39;99523.72;4455617;32;34188;-68
2023/06/08 10:13:31;;;;;;;12.55;9.57;;;;;;;25.67;49.34;99530.03;4454150;32;33681;-68
2023/06/08 10:15:59;;;;;;;12.13;9.82;;;;;;;25.66;49.31;99517.44;4468537;32;34053;-68
2023/06/08 10:18:27;;;;;;;12.65;10.10;;;;;;;25.67;49.29;99510.88;4467505;32;34799;-68
2023/06/08 10:20:54;;;;;;;13.45;10.25;;;;;;;25.67;49.25;99499.13;4467310;32;34708;-67
2023/06/08 10:23:22;;;;;;;13.90;9.20;;;;;;;25.67;49.23;99493.66;4467058;32;34430;-68
2023/06/08 10:25:50;;;;;;;10.35;8.82;;;;;;;25.66;49.21;99506.50;4466525;32;34102;-68
2023/06/08 10:28:20;;;;;;;14.85;10.30;;;;;;;25.66;49.17;99506.50;4454792;32;34128;-68
2023/06/08 10:30:48;;;;;;;11.85;9.25;;;;;;;25.67;49.15;99505.44;4455103;32;34015;-68
2023/06/08 10:33:21;;;;;;;15.45;9.40;;;;;;;25.67;49.11;99497.22;4468634;32;33634;-68
2023/06/08 10:36:08;;;;;;;10.13;9.05;;;;;;;25.67;49.10;99499.97;4468376;32;33921;-68
2023/06/08 10:39:00;;;;;;;12.00;8.77;;;;;;;25.69;49.00;99495.09;4468536;32;34903;-68
2023/06/08 10:41:38;;;;;;;11.00;8.82;;;;;;;25.66;49.03;99492.03;4468821;32;33744;-68
2023/06/08 10:44:05;;;;;;;12.07;8.57;;;;;;;25.68;48.96;99487.94;4468337;32;34147;-67
2023/06/08 10:46:42;;;;;;;12.60;9.43;;;;;;;25.65;48.95;99483.00;4467227;32;33790;-68
2023/06/08 10:49:10;;;;;;;10.82;9.00;;;;;;;25.66;48.92;99481.91;4468536;32;33816;-68
2023/06/08 10:51:42;;;;;;;9.63;8.60;;;;;;;25.66;48.89;99484.66;4468332;32;33617;-66
2023/06/08 10:54:17;;;;;;;12.63;9.23;;;;;;;25.65;48.91;99476.72;4480591;32;32419;-68
2023/06/08 10:56:51;;;;;;;10.38;8.70;;;;;;;25.65;48.86;99477.53;4466992;32;33817;-67
2023/06/08 10:59:39;;;;;;;12.00;9.02;;;;;;;25.66;48.81;99468.25;4468321;32;33668;-67
2023/06/08 11:02:07;;;;;;;11.20;9.30;;;;;;;25.66;48.76;99476.44;4468020;32;34305;-68
2023/06/08 11:04:34;;;;;;;11.02;8.95;;;;;;;25.66;48.77;99465.53;4468389;32;34398;-68
2023/06/08 11:07:25;;;;;;;10.80;8.98;;;;;;;25.65;48.78;99469.34;4468021;32;33620;-67
2023/06/08 11:09:53;;;;;;;9.45;7.93;;;;;;;25.65;48.73;99473.97;4467079;32;33994;-67
2023/06/08 11:12:20;;;;;;;13.00;9.18;;;;;;;25.66;48.70;99472.91;4467021;32;33833;-67
2023/06/08 11:14:48;;;;;;;11.98;8.45;;;;;;;25.65;48.69;99472.06;4468031;32;34417;-68
2023/06/08 11:17:16;;;;;;;11.48;9.02;;;;;;;25.66;48.67;99467.44;4468097;32;34122;-68
2023/06/08 11:19:43;;;;;;;11.43;8.57;;;;;;;25.65;48.66;99466.59;4467992;32;34901;-67
2023/06/08 11:22:11;;;;;;;10.55;8.80;;;;;;;25.65;48.67;99461.16;4466703;32;34707;-68
2023/06/08 11:24:42;;;;;;;13.70;9.43;;;;;;;25.67;48.63;99474.53;4466808;32;33480;-68
2023/06/08 11:27:16;;;;;;;12.30;8.93;;;;;;;25.65;48.63;99463.88;4468241;32;33422;-68
2023/06/08 11:29:46;;;;;;;11.30;8.85;;;;;;;25.67;48.59;99458.97;4467854;32;34009;-67
2023/06/08 11:32:15;;;;;;;11.10;8.85;;;;;;;25.66;48.60;99461.97;4467873;32;34575;-68
2023/06/08 11:34:45;;;;;;;11.88;9.40;;;;;;;25.66;48.57;99461.97;4467806;32;34186;-67
2023/06/08 11:37:19;;;;;;;11.07;8.82;;;;;;;25.67;48.54;99466.34;4467803;32;34615;-68